Onekama, Michigan
Current Conditions -  °F | °C
As of 2:35 PM on Sunday 21 Dec 2014 (Local Time) from KMBL Reporting Station
Overcast Overcast  
Wind Chill: 25°   Ceiling: 4200
Heat Index: 34°   Visibility: 7mi
Dew Point: 28°   Wind: 12mph
Humidity: 81%   Direction: 150°SSE
Pressure: 30.12"   Gusts: 16mph
Location:  44.36°N, 86.21°W
Report Text: KMBL 211935Z AUTO 15010G14KT 130V190 7SM SCT014 OVC042 01/M02 A3012 RMK AO1
Loading
Personal Weather Stations






























Interactive Weather Map New forecast layout! Learn more

10-Day Weather Forecast

Advertisements
Track Severe Weather on mobile